createdAt,value
2023-05-19T08:46:25.406Z,3.10
2023-05-19T08:52:24.298Z,3.13
2023-05-19T08:57:46.773Z,2.47
2023-05-19T09:03:18.037Z,2.47
2023-05-19T09:14:07.416Z,2.60
2023-05-19T09:19:30.353Z,2.10
2023-05-19T09:24:53.485Z,2.45
2023-05-19T09:30:17.307Z,2.28
2023-05-19T09:35:39.112Z,2.55
2023-05-19T09:41:02.042Z,2.15
2023-05-19T09:46:28.607Z,2.20
2023-05-19T09:51:55.086Z,2.00
2023-05-19T09:57:17.272Z,1.73
2023-05-19T10:02:43.086Z,2.25
2023-05-19T10:08:07.516Z,1.83
2023-05-19T10:13:31.111Z,1.88
2023-05-19T10:18:55.693Z,1.67
2023-05-19T10:24:18.625Z,2.10
2023-05-19T10:29:47.906Z,1.98
2023-05-19T10:35:36.387Z,2.00
2023-05-19T10:41:08.066Z,2.00
2023-05-19T10:46:31.504Z,2.00
2023-05-19T10:51:57.094Z,1.60
2023-05-19T10:57:20.860Z,1.98
2023-05-19T11:02:44.328Z,1.92
2023-05-19T11:08:08.359Z,1.92
2023-05-19T11:13:30.232Z,1.88
2023-05-19T11:18:54.826Z,2.15
2023-05-19T11:24:38.114Z,1.87
2023-05-19T11:30:15.197Z,2.08
2023-05-19T11:35:37.784Z,1.80
2023-05-19T11:41:01.241Z,1.95
2023-05-19T11:46:23.259Z,1.90
2023-05-19T11:51:46.317Z,1.95
2023-05-19T11:57:10.648Z,2.95
2023-05-19T12:02:32.519Z,1.83
2023-05-19T12:07:54.667Z,2.25
2023-05-19T12:13:16.801Z,2.10
2023-05-19T12:18:39.148Z,2.05
2023-05-19T12:24:01.269Z,1.70
2023-05-19T12:29:28.155Z,1.75
2023-05-19T12:34:50.379Z,1.70
2023-05-19T12:40:17.014Z,1.83
2023-05-19T12:45:42.888Z,1.90
2023-05-19T12:51:05.850Z,2.03
2023-05-19T12:56:27.704Z,1.50
2023-05-19T13:01:59.334Z,1.73
2023-05-19T13:07:21.347Z,1.85
2023-05-19T13:12:43.170Z,2.20
2023-05-19T13:18:06.600Z,1.30
2023-05-19T13:23:28.470Z,1.80
2023-05-19T13:28:50.337Z,1.85
2023-05-19T13:34:12.199Z,1.65
2023-05-19T13:39:34.046Z,1.95
2023-05-19T13:44:56.886Z,1.55
2023-05-19T13:50:19.166Z,1.80
2023-05-19T13:55:41.157Z,1.50
2023-05-19T14:01:03.010Z,1.90
2023-05-19T14:06:25.108Z,1.70
2023-05-19T14:11:48.143Z,1.85
2023-05-19T14:17:09.991Z,1.70
2023-05-19T14:22:31.812Z,1.40
2023-05-19T14:27:53.628Z,1.63
2023-05-19T14:33:15.542Z,1.65
2023-05-19T14:38:37.412Z,1.60
2023-05-19T14:43:59.283Z,1.30
2023-05-19T14:49:21.099Z,1.85
2023-05-19T14:54:42.946Z,1.60
2023-05-19T15:00:05.411Z,1.50
2023-05-19T15:05:27.268Z,1.83
2023-05-19T15:10:50.646Z,1.50
2023-05-19T15:16:22.272Z,1.50
2023-05-19T15:21:45.890Z,1.83
2023-05-19T15:27:08.952Z,1.70
2023-05-19T15:32:31.172Z,1.55
2023-05-19T15:37:53.017Z,1.40
2023-05-19T15:43:15.028Z,1.50
2023-05-19T15:48:37.115Z,1.40
2023-05-19T15:53:58.961Z,2.03
2023-05-19T15:59:20.867Z,2.58
2023-05-19T16:04:42.715Z,2.00
2023-05-19T16:10:04.905Z,1.95
2023-05-19T16:15:26.854Z,2.30
2023-05-19T16:20:48.762Z,2.15
2023-05-19T16:26:10.724Z,3.83
2023-05-19T16:31:32.590Z,5.68
2023-05-19T16:36:54.442Z,5.68
2023-05-19T16:42:16.763Z,5.28
2023-05-19T16:47:38.837Z,4.90
2023-05-19T16:53:00.954Z,4.07
2023-05-19T16:58:22.837Z,4.70
2023-05-19T17:03:44.702Z,4.35
2023-05-19T17:09:06.619Z,3.28
2023-05-19T17:14:28.484Z,3.10
2023-05-19T17:19:50.314Z,3.20
2023-05-19T17:25:12.425Z,3.15
2023-05-19T17:30:35.026Z,3.10
2023-05-19T17:35:57.034Z,3.17
2023-05-19T17:41:19.053Z,2.67
2023-05-19T17:46:41.335Z,2.47
2023-05-19T17:52:03.559Z,2.60
2023-05-19T17:57:29.490Z,2.75
2023-05-19T18:02:52.009Z,2.22
2023-05-19T18:08:14.116Z,2.50
2023-05-19T18:13:37.379Z,2.10
2023-05-19T18:18:59.309Z,2.35
2023-05-19T18:24:21.242Z,2.53
2023-05-19T18:29:43.098Z,2.20
2023-05-19T18:35:05.352Z,2.25
2023-05-19T18:40:27.209Z,2.30
2023-05-19T18:45:49.126Z,2.60
2023-05-19T18:51:11.188Z,2.63
2023-05-19T18:56:33.499Z,2.30
2023-05-19T19:01:55.519Z,2.17
2023-05-19T19:07:19.718Z,1.75
2023-05-19T19:12:41.516Z,2.22
2023-05-19T19:18:04.572Z,1.85
2023-05-19T19:23:28.068Z,2.30
2023-05-19T19:28:50.051Z,1.80
2023-05-19T19:34:11.988Z,2.40
2023-05-19T19:39:33.827Z,2.00
2023-05-19T19:44:56.320Z,2.60
2023-05-19T19:50:18.309Z,2.35
2023-05-19T19:55:40.251Z,2.22
2023-05-19T20:01:03.566Z,2.17
2023-05-19T20:06:25.551Z,2.03
2023-05-19T20:11:47.386Z,1.85
2023-05-19T20:17:09.307Z,2.00
2023-05-19T20:22:31.174Z,2.42
2023-05-19T20:27:53.168Z,2.15
2023-05-19T20:33:14.982Z,2.30
2023-05-19T20:38:36.795Z,2.08
2023-05-19T20:43:58.722Z,2.65
2023-05-19T20:49:21.184Z,2.25
2023-05-19T20:54:43.154Z,2.10
2023-05-19T21:00:05.443Z,2.10
2023-05-19T21:05:27.261Z,2.13
2023-05-19T21:10:49.225Z,1.60
2023-05-19T21:16:11.043Z,2.30
2023-05-19T21:21:33.784Z,1.80
2023-05-19T21:26:55.668Z,2.03
2023-05-19T21:32:18.091Z,2.20
2023-05-19T21:37:40.295Z,2.03
2023-05-19T21:43:02.111Z,2.20
2023-05-19T21:48:24.042Z,1.92
2023-05-19T21:53:45.999Z,1.80
2023-05-19T21:59:08.066Z,1.67
2023-05-19T22:04:31.761Z,2.35
2023-05-19T22:09:54.247Z,1.88
2023-05-19T22:15:16.211Z,2.33
2023-05-19T22:20:38.161Z,2.25
2023-05-19T22:26:00.006Z,2.10
2023-05-19T22:31:21.954Z,1.60
2023-05-19T22:36:46.230Z,2.17
2023-05-19T22:42:08.140Z,2.08
2023-05-19T22:47:30.306Z,1.90
2023-05-19T22:52:52.173Z,2.30
2023-05-19T22:58:14.567Z,2.33
2023-05-19T23:03:36.454Z,2.03
2023-05-19T23:09:02.539Z,2.10
2023-05-19T23:14:26.112Z,1.92
2023-05-19T23:19:47.970Z,1.90
2023-05-19T23:25:10.073Z,1.73
2023-05-19T23:30:33.230Z,2.00
2023-05-19T23:35:55.019Z,2.03
2023-05-19T23:41:16.807Z,1.95
2023-05-19T23:46:38.665Z,1.70
2023-05-19T23:52:00.647Z,2.00
2023-05-19T23:57:22.325Z,2.03
